sensor_id;sensor_type;location;lat;lon;timestamp;P1;durP1;ratioP1;P2;durP2;ratioP2
10939;SDS011;5522;42.696;23.494;2023-07-31T00:01:20;1.50;;;0.73;;
10939;SDS011;5522;42.696;23.494;2023-07-31T00:03:49;1.52;;;0.70;;
10939;SDS011;5522;42.696;23.494;2023-07-31T00:06:15;1.63;;;0.70;;
10939;SDS011;5522;42.696;23.494;2023-07-31T00:08:42;0.80;;;0.80;;
10939;SDS011;5522;42.696;23.494;2023-07-31T00:25:55;2.97;;;1.00;;
10939;SDS011;5522;42.696;23.494;2023-07-31T00:28:22;1.65;;;1.00;;
10939;SDS011;5522;42.696;23.494;2023-07-31T00:30:49;1.40;;;1.00;;
10939;SDS011;5522;42.696;23.494;2023-07-31T00:33:16;0.95;;;0.95;;
10939;SDS011;5522;42.696;23.494;2023-07-31T00:35:43;1.23;;;1.02;;
10939;SDS011;5522;42.696;23.494;2023-07-31T00:38:10;1.17;;;1.17;;
10939;SDS011;5522;42.696;23.494;2023-07-31T00:40:36;1.13;;;1.10;;
10939;SDS011;5522;42.696;23.494;2023-07-31T00:43:05;1.13;;;1.13;;
10939;SDS011;5522;42.696;23.494;2023-07-31T00:45:32;1.10;;;1.10;;
10939;SDS011;5522;42.696;23.494;2023-07-31T00:47:59;1.20;;;1.10;;
10939;SDS011;5522;42.696;23.494;2023-07-31T00:50:26;1.10;;;1.10;;
10939;SDS011;5522;42.696;23.494;2023-07-31T00:52:54;0.93;;;0.93;;
10939;SDS011;5522;42.696;23.494;2023-07-31T00:55:21;2.40;;;1.17;;
10939;SDS011;5522;42.696;23.494;2023-07-31T00:57:48;1.15;;;1.15;;
10939;SDS011;5522;42.696;23.494;2023-07-31T01:08:04;1.40;;;1.05;;
10939;SDS011;5522;42.696;23.494;2023-07-31T01:10:40;0.90;;;0.90;;
10939;SDS011;5522;42.696;23.494;2023-07-31T01:13:12;0.88;;;0.88;;
10939;SDS011;5522;42.696;23.494;2023-07-31T01:15:39;1.58;;;1.50;;
10939;SDS011;5522;42.696;23.494;2023-07-31T01:18:06;1.42;;;1.42;;
10939;SDS011;5522;42.696;23.494;2023-07-31T01:20:33;1.05;;;1.05;;
10939;SDS011;5522;42.696;23.494;2023-07-31T01:26:06;1.42;;;1.33;;
10939;SDS011;5522;42.696;23.494;2023-07-31T01:28:40;1.70;;;1.60;;
10939;SDS011;5522;42.696;23.494;2023-07-31T01:31:14;1.48;;;1.38;;
10939;SDS011;5522;42.696;23.494;2023-07-31T01:33:44;1.20;;;1.20;;
10939;SDS011;5522;42.696;23.494;2023-07-31T01:36:12;2.05;;;1.42;;
10939;SDS011;5522;42.696;23.494;2023-07-31T01:38:40;1.70;;;1.60;;
10939;SDS011;5522;42.696;23.494;2023-07-31T01:41:08;1.73;;;1.52;;
10939;SDS011;5522;42.696;23.494;2023-07-31T01:43:35;2.00;;;1.90;;
10939;SDS011;5522;42.696;23.494;2023-07-31T01:46:02;1.83;;;1.83;;
10939;SDS011;5522;42.696;23.494;2023-07-31T01:48:28;1.95;;;1.85;;
10939;SDS011;5522;42.696;23.494;2023-07-31T01:51:00;2.38;;;2.28;;
10939;SDS011;5522;42.696;23.494;2023-07-31T01:53:27;5.38;;;2.40;;
10939;SDS011;5522;42.696;23.494;2023-07-31T01:55:54;3.17;;;2.97;;
10939;SDS011;5522;42.696;23.494;2023-07-31T01:58:22;2.90;;;2.80;;
10939;SDS011;5522;42.696;23.494;2023-07-31T02:00:49;3.25;;;3.13;;
10939;SDS011;5522;42.696;23.494;2023-07-31T02:03:16;3.97;;;3.88;;
10939;SDS011;5522;42.696;23.494;2023-07-31T02:05:46;4.55;;;4.43;;
10939;SDS011;5522;42.696;23.494;2023-07-31T02:08:13;5.40;;;5.18;;
10939;SDS011;5522;42.696;23.494;2023-07-31T02:10:40;5.53;;;5.22;;
10939;SDS011;5522;42.696;23.494;2023-07-31T02:13:08;7.30;;;6.60;;
10939;SDS011;5522;42.696;23.494;2023-07-31T02:15:36;7.22;;;6.82;;
10939;SDS011;5522;42.696;23.494;2023-07-31T02:18:03;8.43;;;7.85;;
10939;SDS011;5522;42.696;23.494;2023-07-31T02:20:33;8.85;;;8.20;;
10939;SDS011;5522;42.696;23.494;2023-07-31T02:23:00;9.32;;;8.65;;
10939;SDS011;5522;42.696;23.494;2023-07-31T02:25:27;10.02;;;9.32;;
10939;SDS011;5522;42.696;23.494;2023-07-31T02:27:53;11.50;;;10.25;;
10939;SDS011;5522;42.696;23.494;2023-07-31T02:30:20;11.65;;;10.50;;
10939;SDS011;5522;42.696;23.494;2023-07-31T02:32:49;11.73;;;10.95;;
10939;SDS011;5522;42.696;23.494;2023-07-31T02:35:15;12.63;;;11.63;;
10939;SDS011;5522;42.696;23.494;2023-07-31T02:37:43;12.63;;;11.52;;
10939;SDS011;5522;42.696;23.494;2023-07-31T02:40:11;11.77;;;10.88;;
10939;SDS011;5522;42.696;23.494;2023-07-31T02:42:38;12.65;;;11.52;;
10939;SDS011;5522;42.696;23.494;2023-07-31T02:45:05;12.77;;;11.63;;
10939;SDS011;5522;42.696;23.494;2023-07-31T02:47:33;12.27;;;11.20;;
10939;SDS011;5522;42.696;23.494;2023-07-31T02:50:01;11.57;;;10.68;;
10939;SDS011;5522;42.696;23.494;2023-07-31T02:52:28;12.75;;;11.65;;
10939;SDS011;5522;42.696;23.494;2023-07-31T02:54:55;13.07;;;11.90;;
10939;SDS011;5522;42.696;23.494;2023-07-31T02:57:22;12.80;;;11.70;;
10939;SDS011;5522;42.696;23.494;2023-07-31T02:59:49;12.98;;;11.95;;
10939;SDS011;5522;42.696;23.494;2023-07-31T03:02:15;14.55;;;13.20;;
10939;SDS011;5522;42.696;23.494;2023-07-31T03:04:42;18.10;;;16.33;;
10939;SDS011;5522;42.696;23.494;2023-07-31T03:07:10;20.10;;;18.17;;
10939;SDS011;5522;42.696;23.494;2023-07-31T03:09:37;19.17;;;17.48;;
10939;SDS011;5522;42.696;23.494;2023-07-31T03:12:04;30.27;;;18.13;;
10939;SDS011;5522;42.696;23.494;2023-07-31T03:14:32;19.90;;;17.92;;
10939;SDS011;5522;42.696;23.494;2023-07-31T03:16:59;20.67;;;18.27;;
10939;SDS011;5522;42.696;23.494;2023-07-31T03:19:26;20.52;;;18.52;;
10939;SDS011;5522;42.696;23.494;2023-07-31T03:21:52;20.42;;;18.63;;
10939;SDS011;5522;42.696;23.494;2023-07-31T03:24:21;21.45;;;19.35;;
10939;SDS011;5522;42.696;23.494;2023-07-31T03:26:47;21.65;;;19.55;;
10939;SDS011;5522;42.696;23.494;2023-07-31T03:29:17;21.35;;;19.35;;
10939;SDS011;5522;42.696;23.494;2023-07-31T03:31:44;20.50;;;18.58;;
10939;SDS011;5522;42.696;23.494;2023-07-31T03:34:11;20.27;;;18.25;;
10939;SDS011;5522;42.696;23.494;2023-07-31T03:36:37;21.33;;;18.00;;
10939;SDS011;5522;42.696;23.494;2023-07-31T03:39:04;22.92;;;18.38;;
10939;SDS011;5522;42.696;23.494;2023-07-31T03:41:32;21.80;;;17.80;;
10939;SDS011;5522;42.696;23.494;2023-07-31T03:43:59;19.27;;;17.38;;
10939;SDS011;5522;42.696;23.494;2023-07-31T03:46:26;17.08;;;15.38;;
10939;SDS011;5522;42.696;23.494;2023-07-31T03:48:53;16.98;;;15.48;;
10939;SDS011;5522;42.696;23.494;2023-07-31T03:51:20;16.85;;;15.35;;
10939;SDS011;5522;42.696;23.494;2023-07-31T03:53:46;17.45;;;15.68;;
10939;SDS011;5522;42.696;23.494;2023-07-31T03:56:13;16.45;;;14.93;;
10939;SDS011;5522;42.696;23.494;2023-07-31T03:58:42;14.95;;;13.70;;
10939;SDS011;5522;42.696;23.494;2023-07-31T04:01:08;17.50;;;13.80;;
10939;SDS011;5522;42.696;23.494;2023-07-31T04:03:35;15.57;;;13.43;;
10939;SDS011;5522;42.696;23.494;2023-07-31T04:06:02;13.55;;;12.10;;
10939;SDS011;5522;42.696;23.494;2023-07-31T04:08:29;13.43;;;12.13;;
10939;SDS011;5522;42.696;23.494;2023-07-31T04:10:56;12.30;;;11.27;;
10939;SDS011;5522;42.696;23.494;2023-07-31T04:13:22;13.57;;;12.40;;
10939;SDS011;5522;42.696;23.494;2023-07-31T04:15:54;13.75;;;12.50;;
10939;SDS011;5522;42.696;23.494;2023-07-31T04:18:21;14.63;;;12.93;;
10939;SDS011;5522;42.696;23.494;2023-07-31T04:20:50;14.18;;;12.90;;
10939;SDS011;5522;42.696;23.494;2023-07-31T04:23:17;14.23;;;13.02;;
10939;SDS011;5522;42.696;23.494;2023-07-31T04:25:44;16.27;;;14.60;;
10939;SDS011;5522;42.696;23.494;2023-07-31T04:28:11;16.48;;;14.77;;
10939;SDS011;5522;42.696;23.494;2023-07-31T04:30:38;16.08;;;14.63;;
10939;SDS011;5522;42.696;23.494;2023-07-31T04:33:07;16.23;;;14.57;;
10939;SDS011;5522;42.696;23.494;2023-07-31T04:35:33;17.55;;;16.08;;
10939;SDS011;5522;42.696;23.494;2023-07-31T04:38:01;18.42;;;16.75;;
10939;SDS011;5522;42.696;23.494;2023-07-31T04:40:27;18.38;;;16.70;;
10939;SDS011;5522;42.696;23.494;2023-07-31T04:42:54;18.75;;;16.88;;
10939;SDS011;5522;42.696;23.494;2023-07-31T04:45:21;19.35;;;17.63;;
10939;SDS011;5522;42.696;23.494;2023-07-31T04:47:48;19.27;;;17.48;;
10939;SDS011;5522;42.696;23.494;2023-07-31T04:50:16;20.13;;;18.13;;
10939;SDS011;5522;42.696;23.494;2023-07-31T04:52:43;18.55;;;16.85;;
10939;SDS011;5522;42.696;23.494;2023-07-31T04:55:10;18.20;;;16.60;;
10939;SDS011;5522;42.696;23.494;2023-07-31T04:57:39;19.17;;;17.27;;
10939;SDS011;5522;42.696;23.494;2023-07-31T05:00:06;19.35;;;17.50;;
10939;SDS011;5522;42.696;23.494;2023-07-31T05:02:33;22.05;;;18.67;;
10939;SDS011;5522;42.696;23.494;2023-07-31T05:05:00;20.67;;;18.67;;
10939;SDS011;5522;42.696;23.494;2023-07-31T05:07:28;19.83;;;17.90;;
10939;SDS011;5522;42.696;23.494;2023-07-31T05:09:55;20.52;;;17.08;;
10939;SDS011;5522;42.696;23.494;2023-07-31T05:12:22;20.02;;;18.13;;
10939;SDS011;5522;42.696;23.494;2023-07-31T05:14:49;18.65;;;17.13;;
10939;SDS011;5522;42.696;23.494;2023-07-31T05:17:16;18.33;;;16.67;;
10939;SDS011;5522;42.696;23.494;2023-07-31T05:37:09;13.18;;;12.18;;
10939;SDS011;5522;42.696;23.494;2023-07-31T05:39:36;13.30;;;12.30;;
10939;SDS011;5522;42.696;23.494;2023-07-31T05:42:04;11.15;;;10.18;;
10939;SDS011;5522;42.696;23.494;2023-07-31T05:44:31;9.55;;;8.93;;
10939;SDS011;5522;42.696;23.494;2023-07-31T05:46:58;10.13;;;9.48;;
10939;SDS011;5522;42.696;23.494;2023-07-31T05:49:25;8.32;;;7.82;;
10939;SDS011;5522;42.696;23.494;2023-07-31T05:51:51;6.65;;;6.28;;
10939;SDS011;5522;42.696;23.494;2023-07-31T05:54:19;6.40;;;5.93;;
10939;SDS011;5522;42.696;23.494;2023-07-31T05:56:46;5.20;;;4.85;;
10939;SDS011;5522;42.696;23.494;2023-07-31T05:59:13;5.65;;;5.25;;
10939;SDS011;5522;42.696;23.494;2023-07-31T06:01:40;5.28;;;5.05;;
10939;SDS011;5522;42.696;23.494;2023-07-31T06:04:07;5.20;;;5.00;;
10939;SDS011;5522;42.696;23.494;2023-07-31T06:06:34;4.70;;;4.50;;
10939;SDS011;5522;42.696;23.494;2023-07-31T06:09:01;3.60;;;3.50;;
10939;SDS011;5522;42.696;23.494;2023-07-31T06:11:30;3.95;;;3.72;;
10939;SDS011;5522;42.696;23.494;2023-07-31T06:13:56;3.35;;;3.15;;
10939;SDS011;5522;42.696;23.494;2023-07-31T06:16:23;2.90;;;2.70;;
10939;SDS011;5522;42.696;23.494;2023-07-31T06:18:52;2.55;;;2.40;;
10939;SDS011;5522;42.696;23.494;2023-07-31T06:21:19;3.08;;;2.50;;
10939;SDS011;5522;42.696;23.494;2023-07-31T06:23:46;4.78;;;2.20;;
10939;SDS011;5522;42.696;23.494;2023-07-31T06:26:12;2.17;;;1.80;;
10939;SDS011;5522;42.696;23.494;2023-07-31T06:28:41;2.70;;;2.40;;
10939;SDS011;5522;42.696;23.494;2023-07-31T06:31:08;1.92;;;1.92;;
10939;SDS011;5522;42.696;23.494;2023-07-31T06:33:35;2.17;;;2.00;;
10939;SDS011;5522;42.696;23.494;2023-07-31T06:36:02;1.67;;;1.67;;
10939;SDS011;5522;42.696;23.494;2023-07-31T06:38:29;3.35;;;1.70;;
10939;SDS011;5522;42.696;23.494;2023-07-31T06:40:56;1.70;;;1.60;;
10939;SDS011;5522;42.696;23.494;2023-07-31T06:43:23;1.55;;;1.45;;
10939;SDS011;5522;42.696;23.494;2023-07-31T06:45:51;1.00;;;1.00;;
10939;SDS011;5522;42.696;23.494;2023-07-31T06:48:18;1.70;;;1.60;;
10939;SDS011;5522;42.696;23.494;2023-07-31T06:50:44;2.13;;;1.52;;
10939;SDS011;5522;42.696;23.494;2023-07-31T06:53:11;2.25;;;1.70;;
10939;SDS011;5522;42.696;23.494;2023-07-31T06:55:38;1.50;;;1.23;;
10939;SDS011;5522;42.696;23.494;2023-07-31T06:58:05;2.00;;;1.25;;
10939;SDS011;5522;42.696;23.494;2023-07-31T07:00:32;2.42;;;0.98;;
10939;SDS011;5522;42.696;23.494;2023-07-31T07:03:00;1.17;;;1.17;;
10939;SDS011;5522;42.696;23.494;2023-07-31T07:05:27;2.13;;;2.00;;
10939;SDS011;5522;42.696;23.494;2023-07-31T07:07:53;1.13;;;0.93;;
10939;SDS011;5522;42.696;23.494;2023-07-31T07:10:20;4.18;;;0.80;;
10939;SDS011;5522;42.696;23.494;2023-07-31T07:12:47;1.45;;;0.88;;
10939;SDS011;5522;42.696;23.494;2023-07-31T07:15:15;1.17;;;0.70;;
10939;SDS011;5522;42.696;23.494;2023-07-31T07:17:42;2.05;;;0.77;;
10939;SDS011;5522;42.696;23.494;2023-07-31T07:20:10;2.60;;;0.77;;
10939;SDS011;5522;42.696;23.494;2023-07-31T07:22:37;1.67;;;0.73;;
10939;SDS011;5522;42.696;23.494;2023-07-31T07:25:04;0.85;;;0.77;;
10939;SDS011;5522;42.696;23.494;2023-07-31T07:27:32;0.70;;;0.70;;
10939;SDS011;5522;42.696;23.494;2023-07-31T07:29:59;1.58;;;0.70;;
10939;SDS011;5522;42.696;23.494;2023-07-31T07:32:26;0.70;;;0.70;;
10939;SDS011;5522;42.696;23.494;2023-07-31T07:34:53;2.60;;;0.75;;
10939;SDS011;5522;42.696;23.494;2023-07-31T07:37:22;1.65;;;0.70;;
10939;SDS011;5522;42.696;23.494;2023-07-31T07:39:49;0.70;;;0.70;;
10939;SDS011;5522;42.696;23.494;2023-07-31T07:42:16;1.67;;;0.60;;
10939;SDS011;5522;42.696;23.494;2023-07-31T07:44:44;2.72;;;0.60;;
10939;SDS011;5522;42.696;23.494;2023-07-31T07:47:11;3.35;;;3.15;;
10939;SDS011;5522;42.696;23.494;2023-07-31T07:49:39;1.85;;;1.60;;
10939;SDS011;5522;42.696;23.494;2023-07-31T07:52:06;1.70;;;0.80;;
10939;SDS011;5522;42.696;23.494;2023-07-31T07:54:34;1.65;;;0.80;;
10939;SDS011;5522;42.696;23.494;2023-07-31T07:57:08;1.25;;;0.75;;
10939;SDS011;5522;42.696;23.494;2023-07-31T07:59:35;3.83;;;0.65;;
10939;SDS011;5522;42.696;23.494;2023-07-31T08:02:02;0.60;;;0.60;;
10939;SDS011;5522;42.696;23.494;2023-07-31T08:04:30;1.15;;;0.50;;
10939;SDS011;5522;42.696;23.494;2023-07-31T08:06:56;1.08;;;0.75;;
10939;SDS011;5522;42.696;23.494;2023-07-31T08:09:23;0.90;;;0.50;;
10939;SDS011;5522;42.696;23.494;2023-07-31T08:11:51;1.00;;;0.50;;
10939;SDS011;5522;42.696;23.494;2023-07-31T08:14:19;1.80;;;0.60;;
10939;SDS011;5522;42.696;23.494;2023-07-31T08:16:46;0.95;;;0.60;;
10939;SDS011;5522;42.696;23.494;2023-07-31T08:19:13;3.60;;;0.45;;
10939;SDS011;5522;42.696;23.494;2023-07-31T08:21:40;0.60;;;0.57;;
10939;SDS011;5522;42.696;23.494;2023-07-31T08:24:07;0.90;;;0.50;;
10939;SDS011;5522;42.696;23.494;2023-07-31T08:26:38;1.75;;;0.60;;
10939;SDS011;5522;42.696;23.494;2023-07-31T08:29:06;0.50;;;0.50;;
10939;SDS011;5522;42.696;23.494;2023-07-31T08:31:33;0.98;;;0.50;;
10939;SDS011;5522;42.696;23.494;2023-07-31T08:34:00;0.57;;;0.50;;
10939;SDS011;5522;42.696;23.494;2023-07-31T08:36:27;0.55;;;0.52;;
10939;SDS011;5522;42.696;23.494;2023-07-31T08:38:54;0.70;;;0.45;;
10939;SDS011;5522;42.696;23.494;2023-07-31T08:41:21;0.65;;;0.50;;
10939;SDS011;5522;42.696;23.494;2023-07-31T08:43:49;1.95;;;0.45;;
10939;SDS011;5522;42.696;23.494;2023-07-31T08:46:17;0.50;;;0.50;;
10939;SDS011;5522;42.696;23.494;2023-07-31T08:48:46;0.73;;;0.50;;
10939;SDS011;5522;42.696;23.494;2023-07-31T08:51:14;0.75;;;0.50;;
10939;SDS011;5522;42.696;23.494;2023-07-31T08:53:41;0.55;;;0.52;;
10939;SDS011;5522;42.696;23.494;2023-07-31T08:56:07;1.05;;;0.40;;
10939;SDS011;5522;42.696;23.494;2023-07-31T08:58:35;0.50;;;0.50;;
10939;SDS011;5522;42.696;23.494;2023-07-31T09:01:03;0.65;;;0.50;;
10939;SDS011;5522;42.696;23.494;2023-07-31T09:03:33;0.60;;;0.57;;
10939;SDS011;5522;42.696;23.494;2023-07-31T09:06:01;1.90;;;0.50;;
10939;SDS011;5522;42.696;23.494;2023-07-31T09:08:30;0.40;;;0.40;;
10939;SDS011;5522;42.696;23.494;2023-07-31T09:10:59;1.45;;;0.50;;
10939;SDS011;5522;42.696;23.494;2023-07-31T09:13:27;3.25;;;0.50;;
10939;SDS011;5522;42.696;23.494;2023-07-31T09:15:54;0.50;;;0.50;;
10939;SDS011;5522;42.696;23.494;2023-07-31T09:18:21;0.50;;;0.50;;
10939;SDS011;5522;42.696;23.494;2023-07-31T09:21:01;0.85;;;0.50;;
10939;SDS011;5522;42.696;23.494;2023-07-31T09:23:39;3.03;;;0.40;;
10939;SDS011;5522;42.696;23.494;2023-07-31T09:26:07;6.25;;;0.60;;
10939;SDS011;5522;42.696;23.494;2023-07-31T09:28:34;0.40;;;0.40;;
10939;SDS011;5522;42.696;23.494;2023-07-31T09:31:01;0.52;;;0.40;;
10939;SDS011;5522;42.696;23.494;2023-07-31T09:33:28;0.40;;;0.40;;
10939;SDS011;5522;42.696;23.494;2023-07-31T09:35:56;0.95;;;0.40;;
10939;SDS011;5522;42.696;23.494;2023-07-31T09:38:27;0.40;;;0.40;;
10939;SDS011;5522;42.696;23.494;2023-07-31T09:40:54;1.95;;;0.47;;
10939;SDS011;5522;42.696;23.494;2023-07-31T09:43:21;0.45;;;0.38;;
10939;SDS011;5522;42.696;23.494;2023-07-31T09:45:54;1.30;;;0.50;;
10939;SDS011;5522;42.696;23.494;2023-07-31T09:48:22;0.50;;;0.50;;
10939;SDS011;5522;42.696;23.494;2023-07-31T09:50:51;4.38;;;0.40;;
10939;SDS011;5522;42.696;23.494;2023-07-31T09:53:18;1.30;;;0.50;;
10939;SDS011;5522;42.696;23.494;2023-07-31T09:55:46;0.40;;;0.40;;
10939;SDS011;5522;42.696;23.494;2023-07-31T09:58:13;0.57;;;0.40;;
10939;SDS011;5522;42.696;23.494;2023-07-31T10:00:40;0.40;;;0.40;;
10939;SDS011;5522;42.696;23.494;2023-07-31T10:03:08;1.40;;;0.40;;
10939;SDS011;5522;42.696;23.494;2023-07-31T10:05:36;0.50;;;0.40;;
10939;SDS011;5522;42.696;23.494;2023-07-31T10:08:04;1.52;;;0.40;;
10939;SDS011;5522;42.696;23.494;2023-07-31T10:10:33;5.47;;;0.40;;
10939;SDS011;5522;42.696;23.494;2023-07-31T10:13:04;0.40;;;0.40;;
10939;SDS011;5522;42.696;23.494;2023-07-31T10:15:31;0.35;;;0.30;;
10939;SDS011;5522;42.696;23.494;2023-07-31T10:17:59;1.30;;;0.30;;
10939;SDS011;5522;42.696;23.494;2023-07-31T10:20:27;0.30;;;0.30;;
10939;SDS011;5522;42.696;23.494;2023-07-31T10:22:57;0.80;;;0.30;;
10939;SDS011;5522;42.696;23.494;2023-07-31T10:25:25;0.55;;;0.40;;
10939;SDS011;5522;42.696;23.494;2023-07-31T10:27:52;0.30;;;0.30;;
10939;SDS011;5522;42.696;23.494;2023-07-31T10:30:25;0.30;;;0.30;;
10939;SDS011;5522;42.696;23.494;2023-07-31T10:32:54;0.32;;;0.30;;
10939;SDS011;5522;42.696;23.494;2023-07-31T10:35:23;2.20;;;0.30;;
10939;SDS011;5522;42.696;23.494;2023-07-31T10:37:49;0.40;;;0.40;;
10939;SDS011;5522;42.696;23.494;2023-07-31T10:40:18;0.30;;;0.30;;
10939;SDS011;5522;42.696;23.494;2023-07-31T10:42:53;0.30;;;0.30;;
10939;SDS011;5522;42.696;23.494;2023-07-31T10:45:30;0.30;;;0.20;;
10939;SDS011;5522;42.696;23.494;2023-07-31T10:47:59;0.75;;;0.28;;
10939;SDS011;5522;42.696;23.494;2023-07-31T10:50:32;0.20;;;0.20;;
10939;SDS011;5522;42.696;23.494;2023-07-31T10:53:03;0.30;;;0.30;;
10939;SDS011;5522;42.696;23.494;2023-07-31T10:55:32;12.90;;;0.93;;
10939;SDS011;5522;42.696;23.494;2023-07-31T10:58:06;40.35;;;5.00;;
10939;SDS011;5522;42.696;23.494;2023-07-31T11:00:36;2.15;;;0.30;;
10939;SDS011;5522;42.696;23.494;2023-07-31T11:03:04;2.63;;;0.30;;
10939;SDS011;5522;42.696;23.494;2023-07-31T11:05:43;0.80;;;0.20;;
10939;SDS011;5522;42.696;23.494;2023-07-31T11:08:12;0.20;;;0.20;;
10939;SDS011;5522;42.696;23.494;2023-07-31T11:10:42;0.40;;;0.20;;
10939;SDS011;5522;42.696;23.494;2023-07-31T11:13:09;0.20;;;0.20;;
10939;SDS011;5522;42.696;23.494;2023-07-31T11:15:37;0.40;;;0.20;;
10939;SDS011;5522;42.696;23.494;2023-07-31T11:18:04;0.20;;;0.20;;
10939;SDS011;5522;42.696;23.494;2023-07-31T11:20:33;1.13;;;0.20;;
10939;SDS011;5522;42.696;23.494;2023-07-31T11:23:01;0.45;;;0.20;;
10939;SDS011;5522;42.696;23.494;2023-07-31T11:25:29;1.00;;;0.22;;
10939;SDS011;5522;42.696;23.494;2023-07-31T11:27:57;0.20;;;0.20;;
10939;SDS011;5522;42.696;23.494;2023-07-31T11:30:28;0.20;;;0.20;;
10939;SDS011;5522;42.696;23.494;2023-07-31T11:32:56;2.20;;;0.20;;
10939;SDS011;5522;42.696;23.494;2023-07-31T11:35:23;1.13;;;0.30;;
10939;SDS011;5522;42.696;23.494;2023-07-31T11:37:52;0.20;;;0.20;;
10939;SDS011;5522;42.696;23.494;2023-07-31T11:40:19;0.20;;;0.20;;
10939;SDS011;5522;42.696;23.494;2023-07-31T11:42:46;0.20;;;0.20;;
10939;SDS011;5522;42.696;23.494;2023-07-31T11:45:13;1.08;;;0.20;;
10939;SDS011;5522;42.696;23.494;2023-07-31T11:47:41;3.53;;;0.30;;
10939;SDS011;5522;42.696;23.494;2023-07-31T11:50:11;2.05;;;0.30;;
10939;SDS011;5522;42.696;23.494;2023-07-31T11:52:43;4.07;;;0.25;;
10939;SDS011;5522;42.696;23.494;2023-07-31T11:55:12;0.20;;;0.20;;
10939;SDS011;5522;42.696;23.494;2023-07-31T11:57:40;12.07;;;0.30;;
10939;SDS011;5522;42.696;23.494;2023-07-31T12:00:12;0.40;;;0.20;;
10939;SDS011;5522;42.696;23.494;2023-07-31T12:02:42;0.95;;;0.35;;
10939;SDS011;5522;42.696;23.494;2023-07-31T12:05:12;0.30;;;0.30;;
10939;SDS011;5522;42.696;23.494;2023-07-31T12:07:43;0.65;;;0.20;;
10939;SDS011;5522;42.696;23.494;2023-07-31T12:10:10;2.13;;;0.20;;
10939;SDS011;5522;42.696;23.494;2023-07-31T12:12:37;1.75;;;0.20;;
10939;SDS011;5522;42.696;23.494;2023-07-31T12:15:13;0.30;;;0.30;;
10939;SDS011;5522;42.696;23.494;2023-07-31T12:17:41;0.65;;;0.30;;
10939;SDS011;5522;42.696;23.494;2023-07-31T12:20:09;1.40;;;0.30;;
10939;SDS011;5522;42.696;23.494;2023-07-31T12:22:38;1.20;;;0.25;;
10939;SDS011;5522;42.696;23.494;2023-07-31T12:25:07;1.13;;;0.25;;
10939;SDS011;5522;42.696;23.494;2023-07-31T12:27:44;3.80;;;0.30;;
10939;SDS011;5522;42.696;23.494;2023-07-31T12:30:25;3.08;;;0.30;;
10939;SDS011;5522;42.696;23.494;2023-07-31T12:32:53;0.30;;;0.30;;
10939;SDS011;5522;42.696;23.494;2023-07-31T12:35:20;1.65;;;0.80;;
10939;SDS011;5522;42.696;23.494;2023-07-31T12:37:48;3.58;;;3.38;;
10939;SDS011;5522;42.696;23.494;2023-07-31T12:40:16;1.55;;;0.80;;
10939;SDS011;5522;42.696;23.494;2023-07-31T12:42:43;2.28;;;0.75;;
10939;SDS011;5522;42.696;23.494;2023-07-31T12:45:12;0.85;;;0.80;;
10939;SDS011;5522;42.696;23.494;2023-07-31T12:47:46;1.05;;;0.80;;
10939;SDS011;5522;42.696;23.494;2023-07-31T12:50:13;1.60;;;0.70;;
10939;SDS011;5522;42.696;23.494;2023-07-31T12:52:39;3.00;;;0.80;;
10939;SDS011;5522;42.696;23.494;2023-07-31T12:55:08;1.48;;;0.70;;
10939;SDS011;5522;42.696;23.494;2023-07-31T12:57:36;0.95;;;0.95;;
10939;SDS011;5522;42.696;23.494;2023-07-31T13:00:03;1.10;;;0.73;;
10939;SDS011;5522;42.696;23.494;2023-07-31T13:02:34;0.70;;;0.70;;
10939;SDS011;5522;42.696;23.494;2023-07-31T13:05:03;0.75;;;0.60;;
10939;SDS011;5522;42.696;23.494;2023-07-31T13:07:32;1.40;;;0.77;;
10939;SDS011;5522;42.696;23.494;2023-07-31T13:10:01;0.85;;;0.60;;
10939;SDS011;5522;42.696;23.494;2023-07-31T13:12:30;0.40;;;0.40;;
10939;SDS011;5522;42.696;23.494;2023-07-31T13:15:03;2.40;;;0.30;;
10939;SDS011;5522;42.696;23.494;2023-07-31T13:17:30;6.50;;;0.55;;
10939;SDS011;5522;42.696;23.494;2023-07-31T13:19:59;2.05;;;0.30;;
10939;SDS011;5522;42.696;23.494;2023-07-31T13:22:30;1.20;;;0.40;;
10939;SDS011;5522;42.696;23.494;2023-07-31T13:24:59;13.45;;;0.75;;
10939;SDS011;5522;42.696;23.494;2023-07-31T13:27:26;1.33;;;0.50;;
10939;SDS011;5522;42.696;23.494;2023-07-31T13:29:54;6.75;;;0.77;;
10939;SDS011;5522;42.696;23.494;2023-07-31T13:32:21;3.83;;;0.70;;
10939;SDS011;5522;42.696;23.494;2023-07-31T13:34:49;4.65;;;1.42;;
10939;SDS011;5522;42.696;23.494;2023-07-31T13:37:16;0.73;;;0.60;;
10939;SDS011;5522;42.696;23.494;2023-07-31T13:39:44;1.25;;;0.70;;
10939;SDS011;5522;42.696;23.494;2023-07-31T13:42:12;1.40;;;0.50;;
10939;SDS011;5522;42.696;23.494;2023-07-31T13:44:39;79.70;;;14.85;;
10939;SDS011;5522;42.696;23.494;2023-07-31T13:47:08;12.13;;;0.98;;
10939;SDS011;5522;42.696;23.494;2023-07-31T13:49:35;3.60;;;0.82;;
10939;SDS011;5522;42.696;23.494;2023-07-31T13:52:06;1.90;;;0.70;;
10939;SDS011;5522;42.696;23.494;2023-07-31T13:54:33;1.50;;;0.90;;
10939;SDS011;5522;42.696;23.494;2023-07-31T13:57:02;3.72;;;0.80;;
10939;SDS011;5522;42.696;23.494;2023-07-31T13:59:29;1.15;;;0.77;;
10939;SDS011;5522;42.696;23.494;2023-07-31T14:01:56;2.70;;;0.63;;
10939;SDS011;5522;42.696;23.494;2023-07-31T14:04:24;1.58;;;0.70;;
10939;SDS011;5522;42.696;23.494;2023-07-31T14:06:53;0.60;;;0.60;;
10939;SDS011;5522;42.696;23.494;2023-07-31T14:09:21;0.60;;;0.60;;
10939;SDS011;5522;42.696;23.494;2023-07-31T14:11:48;0.50;;;0.50;;
10939;SDS011;5522;42.696;23.494;2023-07-31T14:14:24;0.60;;;0.57;;
10939;SDS011;5522;42.696;23.494;2023-07-31T14:16:50;15.90;;;6.63;;
10939;SDS011;5522;42.696;23.494;2023-07-31T14:19:17;12.73;;;5.53;;
10939;SDS011;5522;42.696;23.494;2023-07-31T14:21:50;22.50;;;9.65;;
10939;SDS011;5522;42.696;23.494;2023-07-31T14:24:17;1.20;;;0.70;;
10939;SDS011;5522;42.696;23.494;2023-07-31T14:26:49;9.55;;;4.50;;
10939;SDS011;5522;42.696;23.494;2023-07-31T14:29:16;7.07;;;3.78;;
10939;SDS011;5522;42.696;23.494;2023-07-31T14:31:43;0.60;;;0.60;;
10939;SDS011;5522;42.696;23.494;2023-07-31T14:34:12;4.18;;;1.83;;
10939;SDS011;5522;42.696;23.494;2023-07-31T14:36:38;2.45;;;0.90;;
10939;SDS011;5522;42.696;23.494;2023-07-31T14:39:07;0.85;;;0.85;;
10939;SDS011;5522;42.696;23.494;2023-07-31T14:41:39;1.00;;;1.00;;
10939;SDS011;5522;42.696;23.494;2023-07-31T14:44:06;1.48;;;0.60;;
10939;SDS011;5522;42.696;23.494;2023-07-31T14:46:33;1.08;;;1.02;;
10939;SDS011;5522;42.696;23.494;2023-07-31T14:49:01;5.55;;;3.00;;
10939;SDS011;5522;42.696;23.494;2023-07-31T14:51:40;6.50;;;3.55;;
10939;SDS011;5522;42.696;23.494;2023-07-31T14:54:09;21.40;;;10.45;;
10939;SDS011;5522;42.696;23.494;2023-07-31T14:56:36;0.90;;;0.90;;
10939;SDS011;5522;42.696;23.494;2023-07-31T14:59:03;0.63;;;0.60;;
10939;SDS011;5522;42.696;23.494;2023-07-31T15:01:35;1.25;;;0.30;;
10939;SDS011;5522;42.696;23.494;2023-07-31T15:04:02;0.30;;;0.30;;
10939;SDS011;5522;42.696;23.494;2023-07-31T15:06:38;2.50;;;0.30;;
10939;SDS011;5522;42.696;23.494;2023-07-31T15:09:17;0.20;;;0.20;;
10939;SDS011;5522;42.696;23.494;2023-07-31T15:11:46;2.38;;;0.40;;
10939;SDS011;5522;42.696;23.494;2023-07-31T15:14:14;6.72;;;0.30;;
10939;SDS011;5522;42.696;23.494;2023-07-31T15:16:41;0.47;;;0.30;;
10939;SDS011;5522;42.696;23.494;2023-07-31T15:19:09;2.75;;;0.80;;
10939;SDS011;5522;42.696;23.494;2023-07-31T15:21:45;0.38;;;0.38;;
10939;SDS011;5522;42.696;23.494;2023-07-31T15:24:12;0.88;;;0.30;;
10939;SDS011;5522;42.696;23.494;2023-07-31T15:26:47;2.10;;;0.88;;
10939;SDS011;5522;42.696;23.494;2023-07-31T15:29:14;1.83;;;0.80;;